Time;durP1;ratioP1;P1;durP2;ratioP2;P2;SDS_P1;SDS_P2;PMS_P1;PMS_P2;Temp;Humidity;BMP_temperature;BMP_pressure;BME280_temperature;BME280_humidity;BME280_pressure;Samples;Min_cycle;Max_cycle;Signal;HPM_P1;HPM_P2
2023/09/12 00:01:07;;;;;;;35.10;8.20;;;30.40;56.30;;;;;;5056890;28;20649;-69
2023/09/12 00:03:35;;;;;;;36.80;8.27;;;30.40;56.30;;;;;;5058314;28;20196;-70
2023/09/12 00:06:03;;;;;;;28.92;7.40;;;30.40;56.20;;;;;;5050670;28;20228;-70
2023/09/12 00:08:30;;;;;;;24.90;7.03;;;30.40;56.20;;;;;;5049605;28;20753;-69
2023/09/12 00:11:02;;;;;;;54.90;9.90;;;30.40;56.20;;;;;;5062841;28;20205;-70
2023/09/12 00:13:29;;;;;;;36.23;8.07;;;30.40;56.30;;;;;;5063991;28;20207;-70
2023/09/12 00:15:56;;;;;;;34.47;8.07;;;30.40;56.30;;;;;;5068346;28;20207;-70
2023/09/12 00:18:25;;;;;;;39.23;8.30;;;30.40;56.20;;;;;;5068601;28;20192;-69
2023/09/12 00:20:52;;;;;;;33.00;7.90;;;30.40;56.30;;;;;;5081996;28;20207;-70
2023/09/12 00:23:19;;;;;;;24.43;6.60;;;30.40;56.30;;;;;;5068813;28;20213;-69
2023/09/12 00:25:46;;;;;;;33.30;7.83;;;30.40;56.30;;;;;;5056072;28;20311;-69
2023/09/12 00:28:13;;;;;;;24.47;6.87;;;30.40;56.30;;;;;;5056063;28;20249;-70
2023/09/12 00:30:40;;;;;;;32.07;7.57;;;30.40;56.20;;;;;;5079383;28;20199;-70
2023/09/12 00:33:07;;;;;;;38.93;8.33;;;30.40;56.30;;;;;;5059291;28;20224;-71
2023/09/12 00:35:35;;;;;;;26.33;6.97;;;30.30;56.40;;;;;;5052502;28;20299;-69
2023/09/12 00:38:02;;;;;;;42.83;8.47;;;30.30;56.20;;;;;;5057493;28;20559;-69
2023/09/12 00:40:29;;;;;;;27.17;6.90;;;30.30;56.20;;;;;;5056849;28;20291;-70
2023/09/12 00:42:57;;;;;;;57.58;9.68;;;30.30;56.20;;;;;;5065387;28;20703;-69
2023/09/12 00:45:23;;;;;;;27.03;7.23;;;30.30;56.20;;;;;;5055489;28;20684;-70
2023/09/12 00:47:52;;;;;;;54.33;8.90;;;30.30;56.20;;;;;;5050335;28;20207;-69
2023/09/12 00:50:21;;;;;;;44.63;8.37;;;30.30;56.20;;;;;;5059292;28;20204;-70
2023/09/12 00:52:50;;;;;;;32.80;6.97;;;30.30;56.20;;;;;;5072133;28;20616;-69
2023/09/12 00:55:18;;;;;;;31.23;7.33;;;30.30;56.20;;;;;;5062729;28;20342;-70
2023/09/12 00:57:45;;;;;;;38.53;7.90;;;30.30;56.20;;;;;;5051851;28;20287;-69
2023/09/12 01:00:13;;;;;;;37.30;7.77;;;30.30;56.30;;;;;;5066249;28;20278;-70
2023/09/12 01:02:41;;;;;;;24.70;6.87;;;30.20;56.20;;;;;;5051575;28;20200;-70
2023/09/12 01:05:09;;;;;;;34.13;7.70;;;30.30;56.30;;;;;;5060468;28;20627;-70
2023/09/12 01:07:37;;;;;;;27.17;7.30;;;30.30;56.20;;;;;;5070660;28;20267;-69
2023/09/12 01:10:08;;;;;;;47.40;9.03;;;30.30;56.20;;;;;;5065081;28;20339;-69
2023/09/12 01:12:35;;;;;;;32.53;6.93;;;30.20;56.20;;;;;;5069905;28;20285;-70
2023/09/12 01:15:02;;;;;;;24.93;6.77;;;30.30;56.20;;;;;;5055948;28;20214;-69
2023/09/12 01:17:29;;;;;;;29.40;7.67;;;30.20;56.20;;;;;;5067169;28;20207;-69
2023/09/12 01:19:57;;;;;;;43.83;8.77;;;30.20;56.20;;;;;;5076024;28;20211;-70
2023/09/12 01:22:50;;;;;;;31.53;7.90;;;30.20;56.10;;;;;;5052737;28;20410;-69
2023/09/12 01:25:41;;;;;;;31.97;7.27;;;30.20;56.20;;;;;;5052856;28;20201;-69
2023/09/12 01:28:11;;;;;;;35.10;7.60;;;30.20;56.20;;;;;;5061408;28;20202;-69
2023/09/12 01:30:42;;;;;;;25.93;6.47;;;30.20;56.20;;;;;;5069426;28;20195;-69
2023/09/12 01:33:10;;;;;;;28.03;7.03;;;30.20;56.20;;;;;;5056913;28;20231;-69
2023/09/12 01:35:36;;;;;;;37.17;7.77;;;30.20;56.20;;;;;;5064425;28;20823;-69
2023/09/12 01:38:04;;;;;;;36.37;7.63;;;30.20;56.20;;;;;;5061211;28;20287;-69
2023/09/12 01:40:39;;;;;;;30.30;6.90;;;30.10;56.20;;;;;;5053182;28;20206;-69
2023/09/12 01:43:08;;;;;;;23.53;6.50;;;30.10;56.10;;;;;;5058388;28;20278;-69
2023/09/12 01:45:37;;;;;;;36.40;7.87;;;30.10;56.20;;;;;;5049488;28;20295;-69
2023/09/12 01:48:06;;;;;;;39.27;8.03;;;30.20;56.20;;;;;;5060234;28;20307;-69
2023/09/12 01:50:34;;;;;;;53.80;9.70;;;30.10;56.20;;;;;;5060785;28;20218;-70
2023/09/12 01:53:02;;;;;;;25.87;6.77;;;30.10;56.20;;;;;;5067070;28;20507;-69
2023/09/12 01:55:29;;;;;;;34.20;7.23;;;30.10;56.80;;;;;;5070502;28;20199;-68
2023/09/12 01:57:57;;;;;;;26.07;6.67;;;30.10;56.20;;;;;;5077965;28;20230;-69
2023/09/12 02:00:25;;;;;;;41.03;7.90;;;30.20;56.20;;;;;;5088776;28;20207;-70
2023/09/12 02:02:54;;;;;;;28.00;6.97;;;30.10;56.20;;;;;;5090889;28;20213;-71
2023/09/12 02:05:23;;;;;;;27.67;7.23;;;30.10;56.20;;;;;;5091146;28;20197;-72
2023/09/12 02:07:50;;;;;;;41.03;7.83;;;30.10;56.30;;;;;;5089065;28;20211;-70
2023/09/12 02:10:17;;;;;;;24.27;6.70;;;30.10;56.20;;;;;;5071759;28;20223;-70
2023/09/12 02:12:44;;;;;;;29.67;7.50;;;30.10;56.20;;;;;;5066323;28;21135;-70
2023/09/12 02:15:12;;;;;;;28.33;7.17;;;30.10;56.30;;;;;;5064085;28;20734;-68
2023/09/12 02:17:39;;;;;;;26.17;7.17;;;30.10;56.30;;;;;;5070270;28;20294;-72
2023/09/12 02:20:09;;;;;;;24.20;6.67;;;30.10;56.40;;;;;;5051099;28;20210;-72
2023/09/12 02:22:37;;;;;;;30.17;7.37;;;30.00;56.20;;;;;;5056171;28;20201;-69
2023/09/12 02:25:05;;;;;;;27.33;6.73;;;30.10;56.30;;;;;;5049860;28;20518;-71
2023/09/12 02:27:32;;;;;;;35.17;7.20;;;30.10;56.40;;;;;;5049411;28;20228;-70
2023/09/12 02:29:59;;;;;;;30.90;7.93;;;30.00;56.20;;;;;;5050037;28;20293;-69
2023/09/12 02:32:26;;;;;;;26.60;6.60;;;30.00;56.20;;;;;;5056387;28;20224;-69
2023/09/12 02:34:56;;;;;;;42.63;8.80;;;30.10;56.40;;;;;;5055730;28;20201;-70
2023/09/12 02:37:24;;;;;;;28.37;7.33;;;30.00;56.20;;;;;;5067282;28;20200;-70
2023/09/12 02:39:51;;;;;;;27.60;7.17;;;30.00;56.30;;;;;;5058232;28;20204;-69
2023/09/12 02:42:18;;;;;;;26.97;6.90;;;30.00;56.90;;;;;;5049970;28;20291;-70
2023/09/12 02:44:45;;;;;;;33.57;7.87;;;30.00;56.30;;;;;;5050101;28;20307;-69
2023/09/12 02:47:12;;;;;;;44.27;8.83;;;30.00;56.30;;;;;;5053591;28;20706;-70
2023/09/12 02:49:39;;;;;;;50.40;9.50;;;30.00;56.30;;;;;;5064755;28;20205;-69
2023/09/12 02:52:06;;;;;;;32.87;7.63;;;30.00;56.30;;;;;;5054721;28;20204;-70
2023/09/12 02:54:34;;;;;;;45.37;9.30;;;30.00;56.30;;;;;;5051588;28;20213;-70
2023/09/12 02:57:02;;;;;;;24.17;7.03;;;30.00;56.30;;;;;;5069471;28;20306;-70
2023/09/12 02:59:30;;;;;;;32.83;7.47;;;30.00;56.30;;;;;;5073841;28;20244;-69
2023/09/12 03:01:57;;;;;;;50.70;9.97;;;30.00;56.30;;;;;;5086925;28;21031;-69
2023/09/12 03:04:26;;;;;;;29.37;8.13;;;30.00;56.30;;;;;;5063511;28;20590;-69
2023/09/12 03:06:53;;;;;;;36.17;8.67;;;30.00;56.40;;;;;;5073079;28;20245;-69
2023/09/12 03:09:20;;;;;;;34.87;8.10;;;29.90;56.30;;;;;;5068957;28;20230;-70
2023/09/12 03:11:49;;;;;;;24.43;6.97;;;29.90;56.30;;;;;;5067697;28;20213;-69
2023/09/12 03:14:16;;;;;;;28.40;7.33;;;29.90;56.30;;;;;;5071451;28;20217;-69
2023/09/12 03:16:43;;;;;;;34.53;7.73;;;29.90;56.30;;;;;;5088598;28;20313;-69
2023/09/12 03:19:10;;;;;;;29.37;8.07;;;29.90;56.30;;;;;;5064375;28;20210;-69
2023/09/12 03:21:36;;;;;;;23.23;7.10;;;29.90;56.30;;;;;;5070332;28;20201;-69
2023/09/12 03:24:04;;;;;;;44.23;9.57;;;29.90;56.30;;;;;;5085787;28;20200;-69
2023/09/12 03:26:31;;;;;;;31.63;7.63;;;29.90;56.30;;;;;;5086442;28;20226;-69
2023/09/12 03:28:59;;;;;;;30.00;8.17;;;29.90;56.30;;;;;;5088428;28;20293;-69
2023/09/12 03:31:28;;;;;;;25.97;7.67;;;29.90;56.30;;;;;;5087502;28;20750;-69
2023/09/12 03:33:55;;;;;;;44.83;9.13;;;29.90;56.30;;;;;;5066584;28;20735;-69
2023/09/12 03:36:22;;;;;;;34.20;8.27;;;29.90;56.30;;;;;;5067756;28;20290;-69
2023/09/12 03:38:49;;;;;;;34.07;8.63;;;29.80;56.30;;;;;;5068260;28;20209;-69
2023/09/12 03:41:17;;;;;;;34.93;7.93;;;29.90;56.40;;;;;;5072122;28;20282;-69
2023/09/12 03:43:44;;;;;;;30.80;8.77;;;29.90;56.30;;;;;;5069658;28;20208;-69
2023/09/12 03:46:12;;;;;;;37.83;8.63;;;29.90;56.40;;;;;;5082567;28;20195;-68
2023/09/12 03:48:39;;;;;;;45.07;9.63;;;29.80;56.30;;;;;;5067565;28;20274;-69
2023/09/12 03:51:06;;;;;;;32.20;7.83;;;29.90;56.30;;;;;;5067921;28;20286;-69
2023/09/12 03:53:33;;;;;;;30.87;7.43;;;29.80;56.30;;;;;;5068771;28;20312;-69
2023/09/12 03:56:00;;;;;;;48.80;9.50;;;29.80;56.30;;;;;;5083644;28;20203;-69
2023/09/12 03:58:27;;;;;;;32.87;8.70;;;29.80;56.30;;;;;;5078807;28;20203;-69
2023/09/12 04:00:54;;;;;;;28.33;7.80;;;29.80;56.30;;;;;;5067294;28;20522;-69
2023/09/12 04:03:22;;;;;;;29.30;7.87;;;29.80;56.30;;;;;;5068222;28;20203;-69
2023/09/12 04:05:50;;;;;;;34.20;8.33;;;29.80;56.40;;;;;;5081482;28;20196;-68
2023/09/12 04:08:18;;;;;;;33.53;9.00;;;29.80;56.40;;;;;;5068408;28;20222;-68
2023/09/12 04:10:45;;;;;;;31.83;7.97;;;29.80;56.40;;;;;;5068419;28;20198;-69
2023/09/12 04:13:11;;;;;;;37.87;8.43;;;29.80;56.40;;;;;;5065538;28;20207;-69
2023/09/12 04:15:38;;;;;;;25.93;7.43;;;29.80;56.40;;;;;;5057681;28;20204;-69
2023/09/12 04:18:06;;;;;;;42.70;8.83;;;29.80;56.40;;;;;;5065311;28;20211;-68
2023/09/12 04:20:34;;;;;;;27.63;7.93;;;29.80;56.40;;;;;;5061441;28;20217;-69
2023/09/12 04:23:03;;;;;;;31.77;8.50;;;29.80;56.40;;;;;;5067795;28;20196;-69
2023/09/12 04:25:30;;;;;;;51.33;9.97;;;29.80;56.40;;;;;;5082771;28;20203;-69
2023/09/12 04:27:57;;;;;;;30.63;8.10;;;29.80;56.40;;;;;;5073771;28;20234;-69
2023/09/12 04:30:24;;;;;;;35.63;7.90;;;29.80;56.40;;;;;;5068181;28;20206;-69
2023/09/12 04:32:51;;;;;;;30.57;7.97;;;29.80;56.40;;;;;;5068127;28;20219;-70
2023/09/12 04:35:19;;;;;;;31.00;8.20;;;29.80;56.40;;;;;;5068165;28;20274;-69
2023/09/12 04:37:47;;;;;;;41.13;9.57;;;29.80;56.40;;;;;;5069437;28;20204;-69
2023/09/12 04:40:15;;;;;;;28.00;8.03;;;29.80;56.40;;;;;;5047631;28;20240;-69
2023/09/12 04:42:42;;;;;;;29.03;7.93;;;29.80;56.40;;;;;;5074873;28;20286;-69
2023/09/12 04:45:10;;;;;;;32.87;8.33;;;29.80;56.40;;;;;;5076302;28;20203;-72
2023/09/12 04:47:37;;;;;;;25.03;7.57;;;29.80;56.50;;;;;;5088225;28;20309;-71
2023/09/12 04:50:04;;;;;;;35.70;8.33;;;29.80;56.40;;;;;;5073882;28;20262;-68
2023/09/12 04:52:31;;;;;;;28.50;8.10;;;29.70;56.40;;;;;;5081348;28;20575;-69
2023/09/12 04:54:59;;;;;;;26.83;7.73;;;29.80;56.50;;;;;;5064290;28;20214;-70
2023/09/12 04:57:28;;;;;;;44.80;9.20;;;29.80;56.50;;;;;;5049374;28;20674;-69
2023/09/12 04:59:55;;;;;;;24.63;7.53;;;29.80;56.40;;;;;;5054115;28;20235;-69
2023/09/12 05:02:22;;;;;;;32.88;9.02;;;29.80;57.10;;;;;;5046702;28;20783;-71
2023/09/12 05:04:48;;;;;;;35.03;9.50;;;29.70;56.70;;;;;;5074642;28;20237;-70
2023/09/12 05:07:15;;;;;;;35.23;9.57;;;29.70;56.70;;;;;;5087717;28;20309;-69
2023/09/12 05:09:43;;;;;;;31.23;8.77;;;29.70;56.60;;;;;;5087850;28;20191;-69
2023/09/12 05:12:11;;;;;;;29.43;8.50;;;29.80;56.60;;;;;;5087752;28;20187;-69
2023/09/12 05:14:38;;;;;;;34.10;8.70;;;29.80;56.60;;;;;;5073241;28;20208;-69
2023/09/12 05:17:05;;;;;;;27.30;7.97;;;29.80;56.60;;;;;;5075402;28;20200;-70
2023/09/12 05:19:32;;;;;;;36.10;9.00;;;29.80;56.50;;;;;;5047864;28;20211;-68
2023/09/12 05:21:59;;;;;;;35.73;8.30;;;29.80;56.50;;;;;;5047665;28;20207;-69
2023/09/12 05:24:26;;;;;;;38.77;9.20;;;29.80;56.50;;;;;;5047261;28;20244;-69
2023/09/12 05:26:53;;;;;;;55.97;10.33;;;29.80;56.50;;;;;;5048568;28;20283;-69
2023/09/12 05:29:21;;;;;;;28.53;8.53;;;29.80;56.40;;;;;;5061543;28;20282;-70
2023/09/12 05:31:48;;;;;;;34.33;8.57;;;29.80;56.50;;;;;;5059011;28;20282;-68
2023/09/12 05:34:15;;;;;;;43.23;9.43;;;29.80;56.50;;;;;;5066424;28;20203;-71
2023/09/12 05:36:42;;;;;;;28.60;8.73;;;29.80;56.60;;;;;;5065484;28;20199;-69
2023/09/12 05:39:09;;;;;;;29.80;8.07;;;29.70;56.40;;;;;;5069996;28;20203;-69
2023/09/12 05:41:36;;;;;;;35.77;9.57;;;29.70;56.50;;;;;;5066258;28;20670;-68
2023/09/12 05:44:03;;;;;;;33.10;7.93;;;29.70;56.40;;;;;;5076639;28;20199;-68
2023/09/12 05:46:31;;;;;;;36.33;9.43;;;29.70;56.50;;;;;;5082792;28;20202;-68
2023/09/12 05:48:58;;;;;;;31.97;8.57;;;29.70;56.50;;;;;;5052293;28;20699;-68
2023/09/12 05:51:25;;;;;;;36.10;9.03;;;29.70;56.50;;;;;;5070043;28;20292;-69
2023/09/12 05:53:52;;;;;;;35.37;8.47;;;29.70;56.50;;;;;;5070729;28;20673;-71
2023/09/12 05:56:21;;;;;;;28.70;7.40;;;29.70;57.10;;;;;;5060723;28;20214;-70
2023/09/12 05:58:50;;;;;;;31.77;8.20;;;29.70;56.50;;;;;;5053839;28;20208;-70
2023/09/12 06:01:17;;;;;;;30.43;8.00;;;29.70;56.50;;;;;;5070860;28;20676;-69
2023/09/12 06:03:45;;;;;;;34.23;8.80;;;29.70;56.50;;;;;;5069574;28;20207;-72
2023/09/12 06:06:12;;;;;;;46.47;9.43;;;29.70;56.50;;;;;;5068695;28;20283;-69
2023/09/12 06:08:39;;;;;;;38.33;9.20;;;29.60;56.40;;;;;;5067381;28;20222;-72
2023/09/12 06:11:09;;;;;;;29.03;8.27;;;29.60;56.50;;;;;;5091076;28;20230;-72
2023/09/12 06:13:37;;;;;;;28.93;8.17;;;29.60;56.50;;;;;;5079619;28;20218;-70
2023/09/12 06:16:05;;;;;;;40.10;8.73;;;29.60;56.50;;;;;;5076851;28;20253;-73
2023/09/12 06:18:32;;;;;;;29.17;7.60;;;29.60;56.50;;;;;;5050319;28;20314;-68
2023/09/12 06:21:02;;;;;;;37.10;8.63;;;29.60;57.10;;;;;;5049642;28;20200;-72
2023/09/12 06:23:30;;;;;;;30.40;7.77;;;29.60;57.00;;;;;;5049619;28;20188;-72
2023/09/12 06:25:57;;;;;;;34.13;8.47;;;29.60;56.50;;;;;;5073326;28;20214;-71
2023/09/12 06:28:27;;;;;;;30.43;8.03;;;29.60;56.60;;;;;;5070804;28;20290;-70
2023/09/12 06:30:54;;;;;;;37.77;9.37;;;29.60;56.60;;;;;;5089493;28;20302;-68
2023/09/12 06:33:21;;;;;;;29.57;8.17;;;29.60;56.60;;;;;;5090005;28;20310;-70
2023/09/12 06:35:50;;;;;;;48.43;10.07;;;29.60;56.60;;;;;;5089509;28;20202;-73
2023/09/12 06:38:18;;;;;;;40.97;9.10;;;29.60;56.60;;;;;;5088676;28;20198;-69
2023/09/12 06:40:45;;;;;;;38.33;8.63;;;29.60;56.60;;;;;;5089505;28;20282;-70
2023/09/12 06:43:12;;;;;;;29.63;7.77;;;29.60;56.60;;;;;;5089794;28;20312;-68
2023/09/12 06:45:38;;;;;;;50.93;10.07;;;29.60;56.60;;;;;;5085572;28;20238;-68
2023/09/12 06:48:06;;;;;;;37.40;8.97;;;29.60;56.60;;;;;;5079230;28;20322;-69
2023/09/12 06:50:33;;;;;;;66.47;10.90;;;29.60;56.60;;;;;;5080465;28;20199;-68
2023/09/12 06:53:00;;;;;;;27.47;7.27;;;29.50;56.50;;;;;;5049328;28;20656;-69
2023/09/12 06:55:29;;;;;;;44.67;8.73;;;29.60;56.60;;;;;;5049549;28;20206;-69
2023/09/12 06:57:56;;;;;;;47.53;9.60;;;29.60;56.60;;;;;;5067769;28;20202;-72
2023/09/12 07:00:24;;;;;;;27.03;7.70;;;29.50;56.60;;;;;;5062901;28;20286;-73
2023/09/12 07:02:51;;;;;;;36.77;9.13;;;29.50;56.60;;;;;;5089395;28;20244;-72
2023/09/12 07:05:18;;;;;;;24.77;7.33;;;29.50;56.60;;;;;;5073039;28;20202;-73
2023/09/12 07:07:45;;;;;;;28.23;7.90;;;29.50;56.60;;;;;;5063456;28;20226;-73
2023/09/12 07:10:12;;;;;;;28.90;7.73;;;29.50;56.60;;;;;;5062562;28;20196;-71
2023/09/12 07:12:40;;;;;;;32.50;8.43;;;29.50;56.60;;;;;;5059322;28;20213;-73
2023/09/12 07:15:09;;;;;;;44.33;9.00;;;29.50;56.60;;;;;;5063949;28;20295;-72
2023/09/12 07:17:36;;;;;;;50.10;9.93;;;29.50;56.60;;;;;;5062966;28;20191;-71
2023/09/12 07:20:04;;;;;;;33.70;7.57;;;29.50;56.60;;;;;;5071751;28;20201;-74
2023/09/12 07:22:32;;;;;;;50.20;10.13;;;29.50;56.60;;;;;;5058340;28;20229;-72
2023/09/12 07:25:02;;;;;;;33.17;8.13;;;29.50;56.60;;;;;;5062622;28;20203;-73
2023/09/12 07:27:30;;;;;;;32.60;8.33;;;29.50;56.60;;;;;;5058994;28;20200;-73
2023/09/12 07:29:58;;;;;;;43.73;9.03;;;29.50;56.60;;;;;;5049597;28;20196;-75
2023/09/12 07:32:25;;;;;;;35.77;9.03;;;29.50;56.70;;;;;;5044909;28;20219;-72
2023/09/12 07:34:52;;;;;;;36.97;8.43;;;29.40;56.60;;;;;;5060288;28;20210;-75
2023/09/12 07:37:19;;;;;;;30.70;8.10;;;29.50;56.70;;;;;;5049038;28;20274;-76
2023/09/12 07:39:46;;;;;;;46.90;9.40;;;29.40;56.60;;;;;;5060888;28;20319;-75
2023/09/12 07:42:13;;;;;;;33.00;9.03;;;29.40;57.20;;;;;;5069694;28;20296;-74
2023/09/12 07:44:39;;;;;;;69.47;11.13;;;29.40;56.60;;;;;;5065632;28;20204;-74
2023/09/12 07:47:08;;;;;;;32.10;8.93;;;29.40;56.60;;;;;;5058628;28;20280;-75
2023/09/12 07:49:35;;;;;;;27.87;8.00;;;29.40;56.70;;;;;;5047965;28;20259;-73
2023/09/12 07:52:02;;;;;;;41.07;9.37;;;29.50;56.80;;;;;;5061216;28;20211;-71
2023/09/12 07:54:30;;;;;;;28.00;7.90;;;29.40;56.70;;;;;;5063686;28;20286;-73
2023/09/12 07:56:57;;;;;;;34.97;9.00;;;29.50;56.80;;;;;;5053985;28;20208;-74
2023/09/12 07:59:24;;;;;;;36.33;8.97;;;29.50;56.80;;;;;;5064504;28;20287;-73
2023/09/12 08:01:52;;;;;;;32.13;8.67;;;29.50;56.80;;;;;;5064839;28;20867;-72
2023/09/12 08:04:20;;;;;;;29.77;9.10;;;29.50;56.80;;;;;;5066914;28;20196;-72
2023/09/12 08:06:48;;;;;;;27.43;9.13;;;29.50;56.90;;;;;;5068596;28;20203;-72
2023/09/12 08:09:15;;;;;;;45.30;10.77;;;29.50;56.90;;;;;;5067277;28;20287;-71
2023/09/12 08:11:42;;;;;;;26.17;8.17;;;29.50;56.90;;;;;;5079300;28;20199;-73
2023/09/12 08:14:08;;;;;;;35.70;9.93;;;29.50;56.90;;;;;;5071353;28;20298;-70
2023/09/12 08:16:36;;;;;;;30.83;9.47;;;29.50;56.90;;;;;;5054930;28;20217;-71
2023/09/12 08:19:03;;;;;;;32.03;8.20;;;29.50;56.90;;;;;;5078271;28;20282;-71
2023/09/12 08:21:32;;;;;;;52.73;10.63;;;29.60;56.90;;;;;;5066271;28;20282;-70
2023/09/12 08:23:59;;;;;;;45.87;9.77;;;29.60;57.50;;;;;;5070839;28;20198;-71
2023/09/12 08:26:26;;;;;;;31.53;8.73;;;29.60;56.90;;;;;;5086773;28;20285;-70
2023/09/12 08:28:53;;;;;;;42.93;9.77;;;29.60;56.90;;;;;;5049368;28;20232;-71
2023/09/12 08:31:20;;;;;;;33.03;8.30;;;29.60;56.90;;;;;;5075654;28;20290;-72
2023/09/12 08:33:47;;;;;;;30.03;8.97;;;29.60;56.90;;;;;;5084031;28;20215;-72
2023/09/12 08:36:14;;;;;;;30.70;9.00;;;29.60;56.90;;;;;;5067590;28;20290;-73
2023/09/12 08:38:42;;;;;;;33.20;9.30;;;29.60;56.90;;;;;;5067249;28;20195;-74
2023/09/12 08:41:09;;;;;;;37.73;9.53;;;29.60;56.90;;;;;;5075621;28;20209;-74
2023/09/12 08:43:36;;;;;;;32.60;8.80;;;29.60;57.50;;;;;;5067523;28;20205;-72
2023/09/12 08:46:04;;;;;;;36.67;9.17;;;29.60;56.90;;;;;;5068040;28;20207;-72
2023/09/12 08:48:32;;;;;;;33.70;8.97;;;29.60;57.20;;;;;;5065948;28;20266;-72
2023/09/12 08:50:59;;;;;;;31.30;8.30;;;29.60;56.90;;;;;;5067337;28;20210;-71
2023/09/12 08:53:27;;;;;;;34.57;9.27;;;29.60;56.90;;;;;;5073211;28;20282;-72
2023/09/12 08:55:55;;;;;;;60.20;11.90;;;29.60;56.90;;;;;;5082588;28;20655;-71
2023/09/12 08:58:23;;;;;;;42.67;10.43;;;29.60;56.90;;;;;;5065076;28;20200;-72
2023/09/12 09:00:51;;;;;;;51.57;11.03;;;29.60;56.90;;;;;;5061853;28;20290;-73
2023/09/12 09:03:19;;;;;;;42.50;9.90;;;29.60;56.90;;;;;;5065493;28;20188;-71
2023/09/12 09:05:48;;;;;;;29.60;8.27;;;29.60;56.90;;;;;;5050490;28;20232;-75
2023/09/12 09:08:16;;;;;;;37.63;9.20;;;29.60;56.90;;;;;;5068582;28;20211;-72
2023/09/12 09:10:57;;;;;;;37.63;9.37;;;29.60;56.90;;;;;;5077130;28;20293;-72
2023/09/12 09:13:25;;;;;;;31.93;8.43;;;29.60;56.90;;;;;;5061330;28;20945;-72
2023/09/12 09:16:11;;;;;;;28.27;8.67;;;29.60;56.90;;;;;;5084116;28;20194;-72
2023/09/12 09:18:54;;;;;;;34.47;9.33;;;29.60;56.90;;;;;;5075026;28;20553;-72
2023/09/12 09:21:24;;;;;;;32.60;9.03;;;29.60;56.90;;;;;;5071310;28;20359;-73
2023/09/12 09:23:52;;;;;;;85.33;13.43;;;29.60;56.90;;;;;;5069902;28;20275;-74
2023/09/12 09:26:20;;;;;;;32.47;8.90;;;29.60;56.90;;;;;;5084436;28;20195;-72
2023/09/12 09:29:01;;;;;;;35.37;9.10;;;29.60;56.90;;;;;;5090708;28;20742;-73
2023/09/12 09:31:28;;;;;;;38.73;10.23;;;29.60;56.90;;;;;;5090531;28;20647;-72
2023/09/12 09:33:56;;;;;;;36.07;9.63;;;29.60;57.00;;;;;;5091225;28;20289;-72
2023/09/12 09:36:23;;;;;;;36.93;9.27;;;29.60;57.00;;;;;;5090861;28;20212;-74
2023/09/12 09:38:50;;;;;;;37.77;10.40;;;29.60;57.00;;;;;;5090844;28;20222;-74
2023/09/12 09:41:21;;;;;;;29.23;9.33;;;29.60;57.00;;;;;;5090570;28;20205;-72
2023/09/12 09:43:51;;;;;;;30.37;8.43;;;29.60;57.00;;;;;;5090750;28;20201;-72
2023/09/12 09:46:18;;;;;;;33.83;9.07;;;29.60;57.00;;;;;;5090207;28;20616;-75
2023/09/12 09:48:50;;;;;;;26.57;8.53;;;29.60;57.60;;;;;;5090688;28;20709;-72
2023/09/12 09:51:17;;;;;;;29.07;8.63;;;29.60;57.10;;;;;;5090810;28;20278;-73
2023/09/12 09:53:44;;;;;;;33.60;9.43;;;29.60;57.00;;;;;;5090674;28;20309;-75
2023/09/12 09:56:13;;;;;;;27.03;9.13;;;29.60;57.00;;;;;;5090707;28;20225;-73
2023/09/12 09:58:48;;;;;;;36.63;9.60;;;29.60;57.10;;;;;;5090881;28;20199;-75
2023/09/12 10:01:19;;;;;;;36.83;9.57;;;29.60;57.00;;;;;;5090639;28;20205;-73
2023/09/12 10:03:47;;;;;;;32.80;9.17;;;29.60;57.10;;;;;;5090656;28;20602;-75
2023/09/12 10:06:16;;;;;;;30.23;9.90;;;29.60;57.00;;;;;;5090476;28;20210;-75
2023/09/12 10:08:45;;;;;;;29.40;8.87;;;29.60;57.10;;;;;;5090376;28;20214;-72
2023/09/12 10:11:14;;;;;;;29.10;8.87;;;29.70;57.10;;;;;;5064108;28;20210;-73
2023/09/12 10:13:50;;;;;;;34.93;9.07;;;29.60;57.10;;;;;;5049576;28;20227;-75
2023/09/12 10:16:18;;;;;;;25.47;8.27;;;29.60;57.10;;;;;;5050345;28;20295;-74
2023/09/12 10:18:56;;;;;;;40.87;9.87;;;29.70;57.10;;;;;;5064605;28;20601;-75
2023/09/12 10:21:29;;;;;;;33.13;9.67;;;29.60;57.10;;;;;;5088284;28;20286;-76
2023/09/12 10:23:58;;;;;;;39.73;9.97;;;29.60;57.10;;;;;;5090192;28;20578;-75
2023/09/12 10:26:26;;;;;;;32.97;9.27;;;29.70;57.20;;;;;;5090237;28;20203;-75
2023/09/12 10:28:55;;;;;;;31.10;8.90;;;29.70;57.10;;;;;;5089707;28;20321;-73
2023/09/12 10:31:24;;;;;;;25.57;7.73;;;29.70;57.20;;;;;;5089973;28;20305;-72
2023/09/12 10:33:53;;;;;;;28.77;8.63;;;29.70;57.20;;;;;;5089838;28;20670;-71
2023/09/12 10:36:20;;;;;;;27.20;8.53;;;29.60;57.10;;;;;;5090153;28;20274;-72
2023/09/12 10:38:49;;;;;;;31.83;9.10;;;29.70;57.20;;;;;;5089960;28;20279;-72
2023/09/12 10:41:17;;;;;;;29.30;8.83;;;29.60;57.10;;;;;;5089474;28;20654;-72
2023/09/12 10:43:49;;;;;;;30.83;8.40;;;29.70;57.20;;;;;;5089294;28;20207;-72
2023/09/12 10:46:18;;;;;;;37.00;9.23;;;29.70;57.20;;;;;;5089583;28;20572;-73
2023/09/12 10:48:47;;;;;;;29.83;7.97;;;29.70;57.20;;;;;;5089970;28;20195;-72
2023/09/12 10:51:16;;;;;;;34.67;9.10;;;29.70;57.20;;;;;;5089770;28;20202;-72
2023/09/12 10:53:48;;;;;;;34.60;8.97;;;29.70;57.20;;;;;;5089439;28;20654;-72
2023/09/12 10:56:18;;;;;;;39.83;9.93;;;29.70;57.20;;;;;;5089511;28;20183;-72
2023/09/12 11:00:12;;;;;;;42.03;10.40;;;29.70;56.70;;;;;;5121413;27;20592;-71
2023/09/12 11:02:39;;;;;;;30.87;10.13;;;29.80;57.40;;;;;;5125389;27;20484;-71
2023/09/12 11:05:08;;;;;;;37.53;10.73;;;29.80;57.30;;;;;;5125938;28;20718;-71
2023/09/12 11:07:46;;;;;;;39.33;10.37;;;29.80;57.30;;;;;;5125897;27;20233;-71
2023/09/12 11:10:20;;;;;;;31.53;10.07;;;29.80;57.40;;;;;;5126154;27;20307;-69
2023/09/12 11:12:49;;;;;;;42.07;11.63;;;29.80;57.40;;;;;;5123897;27;20201;-66
2023/09/12 11:15:18;;;;;;;31.70;9.87;;;29.80;57.40;;;;;;5125702;28;20194;-69
2023/09/12 11:17:46;;;;;;;42.43;10.87;;;29.80;57.40;;;;;;5124347;27;20212;-67
2023/09/12 11:20:15;;;;;;;30.13;10.20;;;29.80;57.40;;;;;;5125424;28;20321;-68
2023/09/12 11:22:43;;;;;;;26.47;9.73;;;29.80;57.40;;;;;;5125666;28;20187;-71
2023/09/12 11:25:22;;;;;;;30.30;9.60;;;29.90;57.50;;;;;;5125418;27;20213;-70
2023/09/12 11:28:05;;;;;;;39.43;12.37;;;29.90;57.50;;;;;;5124024;27;20201;-68
2023/09/12 11:30:34;;;;;;;43.17;11.73;;;29.90;57.50;;;;;;5121992;28;20575;-69
2023/09/12 11:35:12;;;;;;;34.10;9.90;;;30.00;56.90;;;;;;5102512;27;20555;-71
2023/09/12 11:37:39;;;;;;;37.07;11.20;;;30.00;57.40;;;;;;5096622;28;20252;-71
2023/09/12 11:40:23;;;;;;;35.27;10.63;;;30.00;57.40;;;;;;5092117;28;20324;-70
2023/09/12 11:42:51;;;;;;;29.43;10.30;;;30.00;57.50;;;;;;5085413;28;20301;-72
2023/09/12 11:45:20;;;;;;;39.47;11.13;;;30.00;57.40;;;;;;5085439;28;20218;-70
2023/09/12 11:47:48;;;;;;;33.73;10.80;;;30.10;57.50;;;;;;5090867;28;20627;-71
2023/09/12 11:50:30;;;;;;;31.93;10.93;;;30.10;57.50;;;;;;5095245;28;20249;-70
2023/09/12 11:53:01;;;;;;;44.17;11.37;;;30.00;57.40;;;;;;5091912;28;20202;-71
2023/09/12 11:55:30;;;;;;;27.63;10.23;;;30.10;57.60;;;;;;5097722;28;20224;-71
2023/09/12 11:57:57;;;;;;;42.23;11.33;;;30.10;57.40;;;;;;5085012;28;20218;-71
2023/09/12 12:00:26;;;;;;;47.77;12.00;;;30.10;57.50;;;;;;5083144;28;20282;-71
2023/09/12 12:02:53;;;;;;;38.77;11.57;;;30.10;57.40;;;;;;5093394;28;20232;-72
2023/09/12 12:05:20;;;;;;;32.53;10.17;;;30.10;57.50;;;;;;5096845;28;20290;-72
2023/09/12 12:07:49;;;;;;;46.80;11.73;;;30.10;57.50;;;;;;5091339;28;20194;-71
2023/09/12 12:10:17;;;;;;;62.53;13.00;;;30.20;57.50;;;;;;5082033;28;20230;-71
2023/09/12 12:12:46;;;;;;;47.80;12.03;;;30.20;57.50;;;;;;5086394;28;20314;-72
2023/09/12 12:15:13;;;;;;;33.97;10.57;;;30.20;57.50;;;;;;5082938;28;20231;-73
2023/09/12 12:17:42;;;;;;;39.13;11.03;;;30.30;57.60;;;;;;5096227;28;20208;-72
2023/09/12 12:20:10;;;;;;;34.80;10.47;;;30.20;57.50;;;;;;5094648;28;20246;-75
2023/09/12 12:22:38;;;;;;;51.03;12.33;;;30.30;57.60;;;;;;5100403;28;20821;-72
2023/09/12 12:25:10;;;;;;;40.50;11.47;;;30.30;57.60;;;;;;5104183;28;20194;-73
2023/09/12 12:27:38;;;;;;;26.77;8.73;;;30.30;57.60;;;;;;5099098;28;20199;-72
2023/09/12 12:30:08;;;;;;;57.33;13.17;;;30.30;57.60;;;;;;5096053;28;20199;-72
2023/09/12 12:32:35;;;;;;;33.17;9.87;;;30.30;57.60;;;;;;5091659;28;20206;-72
2023/09/12 12:35:03;;;;;;;32.90;10.30;;;30.30;57.60;;;;;;5088787;28;20690;-72
2023/09/12 12:37:31;;;;;;;27.43;9.10;;;30.40;57.60;;;;;;5104621;28;20550;-73
2023/09/12 12:39:59;;;;;;;32.30;9.97;;;30.50;57.60;;;;;;5103845;28;20642;-72
2023/09/12 12:42:34;;;;;;;28.17;9.70;;;30.50;57.60;;;;;;5092677;28;20198;-72
2023/09/12 12:45:02;;;;;;;26.83;9.20;;;30.50;57.50;;;;;;5084708;28;20297;-72